Terminal Aerodrome Forecast
Issued by NWS Northern Indiana

Home | Current Version | Previous Version | Graphics & Text | Print | Product List | Glossary On
Versions: 1 2 3 4 5 6 7 8 9 10 11 12 13 14 15 16 17 18
000
FTUS43 KIWX 201720
TAFFWA
TAF
KFWA 201720Z 2018/2118 23006KT 2SM BR OVC003
      TEMPO 2018/2021 1/2SM DZ FG OVC002
     FM202300 21004KT 3SM BR OVC008
     FM210400 16004KT 2SM BR OVC008=

USA.gov is the U.S. government's official web portal to all federal, state and local government web resources and services.